Time;durP1;ratioP1;P1;durP2;ratioP2;P2;SDS_P1;SDS_P2;PMS_P1;PMS_P2;Temp;Humidity;BMP_temperature;BMP_pressure;BME280_temperature;BME280_humidity;BME280_pressure;Samples;Min_cycle;Max_cycle;Signal;HPM_P1;HPM_P2
2022/07/27 00:00:26;;;;;;;2.78;1.70;;;13.50;99.90;;;;;;5020735;28;20434;-82
2022/07/27 00:02:54;;;;;;;6.40;1.65;;;13.60;99.90;;;;;;5037264;28;20061;-87
2022/07/27 00:05:20;;;;;;;4.10;1.40;;;13.70;99.90;;;;;;5037471;28;20048;-82
2022/07/27 00:07:45;;;;;;;3.47;1.30;;;13.80;99.90;;;;;;5018852;28;20050;-83
2022/07/27 00:10:12;;;;;;;2.35;1.20;;;13.90;99.90;;;;;;5022352;28;20141;-82
2022/07/27 00:12:38;;;;;;;4.38;1.17;;;14.00;99.90;;;;;;5019964;28;20046;-83
2022/07/27 00:15:04;;;;;;;3.90;1.20;;;14.10;99.90;;;;;;5016200;28;20390;-82
2022/07/27 00:17:30;;;;;;;4.32;1.20;;;14.10;99.90;;;;;;5016476;28;20038;-82
2022/07/27 00:19:55;;;;;;;4.97;1.25;;;14.20;99.90;;;;;;5014106;28;20054;-82
2022/07/27 00:22:22;;;;;;;2.45;0.90;;;14.30;99.90;;;;;;5019008;28;20057;-82
2022/07/27 00:24:48;;;;;;;3.33;0.90;;;14.30;99.90;;;;;;5015594;28;20050;-82
2022/07/27 00:27:13;;;;;;;3.88;0.98;;;14.30;99.90;;;;;;5014601;28;20048;-82
2022/07/27 00:29:39;;;;;;;2.17;0.93;;;14.30;99.90;;;;;;5014504;28;20112;-82
2022/07/27 00:32:05;;;;;;;1.38;0.80;;;14.30;99.90;;;;;;5014041;28;20056;-82
2022/07/27 00:34:31;;;;;;;2.28;0.77;;;14.40;99.90;;;;;;5015833;28;20046;-82
2022/07/27 00:36:56;;;;;;;1.88;0.88;;;14.30;99.90;;;;;;5015019;28;20061;-83
2022/07/27 00:39:22;;;;;;;2.85;0.80;;;14.40;99.90;;;;;;5015773;28;20050;-82
2022/07/27 00:41:48;;;;;;;2.65;1.13;;;14.40;99.90;;;;;;5014917;28;20050;-82
2022/07/27 00:44:14;;;;;;;2.75;1.48;;;14.30;99.90;;;;;;4997684;28;20081;-82
2022/07/27 00:46:40;;;;;;;1.00;0.90;;;14.30;99.90;;;;;;5013837;28;20474;-82
2022/07/27 00:49:06;;;;;;;3.42;0.80;;;14.30;99.90;;;;;;5029186;28;20050;-83
2022/07/27 00:51:31;;;;;;;2.08;0.82;;;14.20;99.90;;;;;;5027349;28;20042;-82
2022/07/27 00:53:57;;;;;;;2.70;1.00;;;14.10;99.90;;;;;;5024645;28;20049;-81
2022/07/27 00:56:22;;;;;;;2.30;0.88;;;14.10;99.90;;;;;;5025322;28;20123;-83
2022/07/27 00:58:49;;;;;;;1.88;1.00;;;14.00;99.90;;;;;;5026862;28;20100;-84
2022/07/27 01:01:16;;;;;;;3.60;1.30;;;14.00;99.90;;;;;;5031932;28;20050;-82
2022/07/27 01:03:41;;;;;;;2.67;1.00;;;13.90;99.90;;;;;;5035120;28;20050;-79
2022/07/27 01:06:07;;;;;;;5.07;1.23;;;13.90;99.90;;;;;;5023922;28;20136;-82
2022/07/27 01:08:33;;;;;;;3.40;1.17;;;13.80;99.90;;;;;;5020322;28;20045;-82
2022/07/27 01:10:59;;;;;;;5.60;1.35;;;13.80;99.90;;;;;;5003652;28;20057;-82
2022/07/27 01:13:25;;;;;;;2.25;1.45;;;13.70;99.90;;;;;;5019810;28;20052;-82
2022/07/27 01:15:51;;;;;;;4.38;1.30;;;13.70;99.90;;;;;;5019681;28;20077;-82
2022/07/27 01:18:30;;;;;;;2.58;1.30;;;13.70;99.90;;;;;;5018588;28;20037;-83
2022/07/27 01:20:56;;;;;;;3.08;1.30;;;13.60;99.90;;;;;;5021818;28;20128;-83
2022/07/27 01:23:23;;;;;;;3.78;1.50;;;13.60;99.90;;;;;;5019800;28;20082;-82
2022/07/27 01:25:48;;;;;;;4.55;1.17;;;13.50;99.90;;;;;;5017457;28;20128;-82
2022/07/27 01:28:14;;;;;;;2.05;1.17;;;13.40;99.90;;;;;;5024379;28;20084;-83
2022/07/27 01:30:41;;;;;;;6.22;1.23;;;13.40;99.90;;;;;;5036984;28;20026;-82
2022/07/27 01:33:07;;;;;;;3.60;1.38;;;13.40;99.90;;;;;;5036658;28;20025;-83
2022/07/27 01:35:34;;;;;;;4.00;1.35;;;13.40;99.90;;;;;;5033175;28;20417;-83
2022/07/27 01:37:59;;;;;;;4.40;1.38;;;13.30;99.90;;;;;;5018821;28;20050;-83
2022/07/27 01:40:25;;;;;;;3.78;1.02;;;13.40;99.90;;;;;;5019039;28;20095;-82
2022/07/27 01:42:51;;;;;;;4.28;1.25;;;13.30;99.90;;;;;;5021558;28;20196;-82
2022/07/27 01:45:17;;;;;;;3.85;1.60;;;13.30;99.90;;;;;;5004229;28;20050;-82
2022/07/27 01:47:43;;;;;;;3.47;1.52;;;13.30;99.90;;;;;;5016555;28;20042;-82
2022/07/27 01:50:09;;;;;;;3.15;1.27;;;13.20;99.90;;;;;;5016311;28;20048;-81
2022/07/27 01:52:34;;;;;;;3.47;2.30;;;13.10;99.90;;;;;;5017681;28;20068;-82
2022/07/27 01:55:00;;;;;;;4.47;1.60;;;13.00;99.90;;;;;;5016563;28;20069;-82
2022/07/27 01:57:26;;;;;;;5.57;1.63;;;13.00;99.90;;;;;;5016365;28;20402;-82
2022/07/27 01:59:52;;;;;;;3.15;1.60;;;12.90;99.90;;;;;;4999322;28;20046;-83
2022/07/27 02:02:18;;;;;;;2.85;1.40;;;12.80;99.90;;;;;;5018183;28;20054;-82
2022/07/27 02:04:44;;;;;;;1.77;1.35;;;12.70;99.90;;;;;;5016439;28;20370;-82
2022/07/27 02:07:09;;;;;;;6.20;1.58;;;12.70;99.90;;;;;;5016048;28;20038;-81
2022/07/27 02:09:35;;;;;;;4.13;1.45;;;12.60;99.90;;;;;;5015834;28;20046;-81
2022/07/27 02:14:45;;;;;;;4.90;1.63;;;12.50;99.90;;;;;;5015260;28;20493;-82
2022/07/27 02:17:11;;;;;;;6.75;1.88;;;12.50;99.90;;;;;;5015441;28;20050;-82
2022/07/27 02:19:36;;;;;;;6.05;1.67;;;12.40;99.90;;;;;;5018353;28;20050;-83
2022/07/27 02:22:02;;;;;;;5.43;1.63;;;12.40;99.90;;;;;;5018109;28;20057;-82
2022/07/27 02:24:28;;;;;;;3.72;1.70;;;12.30;99.90;;;;;;5034271;28;20034;-85
2022/07/27 02:26:53;;;;;;;6.68;1.70;;;12.30;99.90;;;;;;5033645;28;20132;-81
2022/07/27 02:29:19;;;;;;;3.83;1.90;;;12.30;99.90;;;;;;5016568;28;20054;-81
2022/07/27 02:31:45;;;;;;;3.08;2.00;;;12.20;99.90;;;;;;5016945;28;20061;-82
2022/07/27 02:34:10;;;;;;;2.80;1.90;;;12.20;99.90;;;;;;5016399;28;20056;-81
2022/07/27 02:36:36;;;;;;;5.30;1.77;;;12.20;99.90;;;;;;5015243;28;20043;-82
2022/07/27 02:39:02;;;;;;;3.00;2.08;;;12.20;99.90;;;;;;5014657;28;20077;-82
2022/07/27 02:41:27;;;;;;;5.43;1.77;;;12.20;99.90;;;;;;4997990;28;20058;-81
2022/07/27 02:43:53;;;;;;;5.68;2.10;;;12.20;99.90;;;;;;5017062;28;20048;-81
2022/07/27 02:46:19;;;;;;;6.63;2.10;;;12.20;99.90;;;;;;5017080;28;20042;-81
2022/07/27 02:48:44;;;;;;;3.15;1.80;;;12.20;99.90;;;;;;5018483;28;20086;-81
2022/07/27 02:51:14;;;;;;;3.10;1.80;;;12.10;99.90;;;;;;5017955;28;20367;-81
2022/07/27 02:53:40;;;;;;;3.85;1.80;;;12.10;99.90;;;;;;5017532;28;20042;-84
2022/07/27 02:56:06;;;;;;;2.92;1.90;;;12.00;99.90;;;;;;5037959;28;20080;-89
2022/07/27 02:58:32;;;;;;;7.28;2.25;;;12.00;99.90;;;;;;5040011;28;20041;-81
2022/07/27 03:00:57;;;;;;;6.50;2.22;;;12.00;99.90;;;;;;5006994;28;20050;-81
2022/07/27 03:03:23;;;;;;;4.65;2.00;;;11.90;99.90;;;;;;5031953;28;20056;-82
2022/07/27 03:05:49;;;;;;;2.63;2.00;;;11.90;99.90;;;;;;5029298;28;20046;-81
2022/07/27 03:08:14;;;;;;;5.85;2.03;;;11.90;99.90;;;;;;5022017;28;20038;-82
2022/07/27 03:10:40;;;;;;;4.60;1.85;;;11.80;99.90;;;;;;5025239;28;20108;-81
2022/07/27 03:13:06;;;;;;;4.97;1.80;;;11.80;99.90;;;;;;5024431;28;20482;-83
2022/07/27 03:15:33;;;;;;;3.17;2.03;;;11.80;99.90;;;;;;5005849;28;20092;-82
2022/07/27 03:17:59;;;;;;;6.03;2.17;;;11.80;99.90;;;;;;5020973;28;20046;-80
2022/07/27 03:20:24;;;;;;;4.75;2.13;;;11.80;99.90;;;;;;5021568;28;20069;-84
2022/07/27 03:22:50;;;;;;;5.32;2.03;;;11.80;99.90;;;;;;5019996;28;20136;-81
2022/07/27 03:25:16;;;;;;;7.68;2.00;;;11.80;99.90;;;;;;5022784;28;20116;-81
2022/07/27 03:27:41;;;;;;;3.72;1.85;;;11.80;99.90;;;;;;5022453;28;20049;-81
2022/07/27 03:30:07;;;;;;;4.30;2.15;;;11.80;99.90;;;;;;5021199;28;20046;-83
2022/07/27 03:32:33;;;;;;;7.55;2.28;;;11.80;99.90;;;;;;5021438;28;20064;-81
2022/07/27 03:34:59;;;;;;;4.43;1.98;;;11.90;99.90;;;;;;5020873;28;20393;-81
2022/07/27 03:37:24;;;;;;;4.28;2.10;;;11.90;99.90;;;;;;5022075;28;20042;-82
2022/07/27 03:39:50;;;;;;;3.75;2.00;;;12.00;99.90;;;;;;5022229;28;20049;-82
2022/07/27 03:42:15;;;;;;;5.20;2.17;;;12.00;99.90;;;;;;5020320;28;20044;-81
2022/07/27 03:44:42;;;;;;;2.88;2.25;;;12.10;99.90;;;;;;5022239;28;20057;-81
2022/07/27 03:47:08;;;;;;;3.95;1.95;;;12.20;99.90;;;;;;5037589;28;20068;-88
2022/07/27 03:49:33;;;;;;;4.90;2.00;;;12.20;99.90;;;;;;5038354;28;20069;-82
2022/07/27 03:51:59;;;;;;;4.53;1.83;;;12.30;99.90;;;;;;5022881;28;20042;-81
2022/07/27 03:54:25;;;;;;;5.53;2.20;;;12.30;99.90;;;;;;5022481;28;20069;-82
2022/07/27 03:56:50;;;;;;;4.10;2.10;;;12.30;99.90;;;;;;5019711;28;20394;-81
2022/07/27 03:59:16;;;;;;;4.53;2.00;;;12.40;99.90;;;;;;5019080;28;20042;-82
2022/07/27 04:01:42;;;;;;;3.92;2.00;;;12.50;99.90;;;;;;5022743;28;20042;-82
2022/07/27 04:04:07;;;;;;;5.22;2.08;;;12.40;99.90;;;;;;5023310;28;20081;-83
2022/07/27 04:06:33;;;;;;;3.55;1.85;;;12.50;99.90;;;;;;5005356;28;20044;-82
2022/07/27 04:08:58;;;;;;;5.63;2.15;;;12.50;99.90;;;;;;5017496;28;20046;-83
2022/07/27 04:11:24;;;;;;;3.03;1.98;;;12.50;99.90;;;;;;5018975;28;20057;-81
2022/07/27 04:13:50;;;;;;;3.25;1.90;;;12.60;99.90;;;;;;5021208;28;20045;-80
2022/07/27 04:16:16;;;;;;;5.00;1.80;;;12.60;99.90;;;;;;5024373;28;20061;-82
2022/07/27 04:18:42;;;;;;;6.00;2.15;;;12.60;99.90;;;;;;5007679;28;20046;-83
2022/07/27 04:21:08;;;;;;;2.67;1.70;;;12.70;99.90;;;;;;5038047;28;20045;-82
2022/07/27 04:23:33;;;;;;;6.93;2.00;;;12.70;99.90;;;;;;5019822;28;20076;-81
2022/07/27 04:25:59;;;;;;;5.70;2.03;;;12.70;99.90;;;;;;5033621;28;20054;-82
2022/07/27 04:28:25;;;;;;;4.53;1.70;;;12.80;99.90;;;;;;5022359;28;20042;-81
2022/07/27 04:30:50;;;;;;;4.13;1.98;;;12.80;99.90;;;;;;5020931;28;20057;-81
2022/07/27 04:33:19;;;;;;;7.53;1.90;;;12.80;99.90;;;;;;5019766;28;20128;-81
2022/07/27 04:35:45;;;;;;;3.80;1.90;;;12.90;99.90;;;;;;5021227;28;20139;-82
2022/07/27 04:38:10;;;;;;;5.05;2.00;;;12.90;99.90;;;;;;5017738;28;20283;-82
2022/07/27 04:40:36;;;;;;;4.68;2.15;;;13.00;99.90;;;;;;5017620;28;20052;-82
2022/07/27 04:43:03;;;;;;;3.78;1.70;;;13.10;99.90;;;;;;5019220;28;20100;-82
2022/07/27 04:45:28;;;;;;;7.60;2.10;;;13.10;99.90;;;;;;5001335;28;20461;-83
2022/07/27 04:47:54;;;;;;;5.95;2.03;;;13.10;99.90;;;;;;5018231;28;20038;-82
2022/07/27 04:50:20;;;;;;;6.10;2.15;;;13.20;99.90;;;;;;4998960;28;20042;-82
2022/07/27 04:52:45;;;;;;;4.68;2.20;;;13.30;99.90;;;;;;4999015;28;20440;-82
2022/07/27 04:55:11;;;;;;;5.70;2.33;;;13.30;99.90;;;;;;5015184;28;20046;-82
2022/07/27 04:57:40;;;;;;;5.50;2.17;;;13.40;99.90;;;;;;5015545;28;20101;-82
2022/07/27 05:00:07;;;;;;;8.60;2.90;;;13.50;99.90;;;;;;5017120;28;20141;-84
2022/07/27 05:02:32;;;;;;;4.35;2.40;;;13.50;99.90;;;;;;5015387;28;20042;-82
2022/07/27 05:04:58;;;;;;;7.32;2.35;;;13.60;99.90;;;;;;5015647;28;20053;-82
2022/07/27 05:07:24;;;;;;;8.00;2.15;;;13.80;99.90;;;;;;5028859;28;20473;-83
2022/07/27 05:09:50;;;;;;;6.03;2.10;;;14.00;99.90;;;;;;5029660;28;20054;-81
2022/07/27 05:12:15;;;;;;;5.40;2.75;;;14.80;99.90;;;;;;5037519;28;20049;-80
2022/07/27 05:14:41;;;;;;;5.05;1.75;;;15.70;99.90;;;;;;5027315;28;20050;-82
2022/07/27 05:17:07;;;;;;;3.65;1.52;;;16.50;99.90;;;;;;5023012;28;20049;-82
2022/07/27 05:19:32;;;;;;;4.45;1.70;;;17.40;99.90;;;;;;5022121;28;20065;-82
2022/07/27 05:21:59;;;;;;;3.13;1.48;;;18.00;99.90;;;;;;5023085;28;20078;-81
2022/07/27 05:24:24;;;;;;;7.35;1.92;;;18.50;99.90;;;;;;5022483;28;20053;-83
2022/07/27 05:26:50;;;;;;;3.65;1.70;;;18.20;99.90;;;;;;5020033;28;20050;-82
2022/07/27 05:29:16;;;;;;;3.38;1.60;;;17.90;99.90;;;;;;5020361;28;20444;-82
2022/07/27 05:31:41;;;;;;;4.35;1.70;;;17.50;99.90;;;;;;5018183;28;20100;-83
2022/07/27 05:34:07;;;;;;;6.72;1.83;;;17.00;99.90;;;;;;5023108;28;20045;-82
2022/07/27 05:36:32;;;;;;;3.42;1.55;;;16.70;99.90;;;;;;5022545;28;20049;-82
2022/07/27 05:38:58;;;;;;;5.47;1.50;;;16.30;99.90;;;;;;5022313;28;20049;-82
2022/07/27 05:41:25;;;;;;;4.72;1.63;;;16.10;99.90;;;;;;5023627;28;20045;-84
2022/07/27 05:43:53;;;;;;;3.88;1.67;;;15.80;99.90;;;;;;5031025;28;20037;-84
2022/07/27 05:46:18;;;;;;;4.95;2.03;;;15.70;99.90;;;;;;5020902;28;20029;-83
2022/07/27 05:48:44;;;;;;;7.28;1.60;;;15.60;99.90;;;;;;5033920;28;20046;-82
2022/07/27 05:51:10;;;;;;;4.97;1.77;;;15.50;99.90;;;;;;5010933;28;20046;-82
2022/07/27 05:53:35;;;;;;;9.27;2.90;;;15.40;99.90;;;;;;5022301;28;20046;-82
2022/07/27 05:56:01;;;;;;;6.22;1.80;;;15.30;99.90;;;;;;5021919;28;20054;-83
2022/07/27 05:58:28;;;;;;;4.00;1.60;;;15.30;99.90;;;;;;5022610;28;20498;-83
2022/07/27 06:00:55;;;;;;;4.47;1.70;;;15.20;99.90;;;;;;5022366;28;20390;-83
2022/07/27 06:03:21;;;;;;;6.53;1.90;;;15.30;99.90;;;;;;5021756;28;20038;-83
2022/07/27 06:05:47;;;;;;;5.05;2.10;;;15.20;99.90;;;;;;5020479;28;20053;-83
2022/07/27 06:08:12;;;;;;;6.18;2.00;;;15.20;99.90;;;;;;5004706;28;20046;-84
2022/07/27 06:10:41;;;;;;;7.70;2.13;;;15.10;99.90;;;;;;5019652;28;20049;-83
2022/07/27 06:13:08;;;;;;;5.40;1.73;;;15.00;99.90;;;;;;5020776;28;20049;-83
2022/07/27 06:15:35;;;;;;;9.32;1.90;;;15.10;99.90;;;;;;5020210;28;20597;-83
2022/07/27 06:18:02;;;;;;;4.75;1.60;;;15.20;99.90;;;;;;5025016;28;20402;-83
2022/07/27 06:20:28;;;;;;;4.22;1.33;;;15.00;99.90;;;;;;5022671;28;20387;-85
2022/07/27 06:22:56;;;;;;;5.72;1.65;;;14.90;99.90;;;;;;5021018;28;20136;-83
2022/07/27 06:25:23;;;;;;;3.33;1.42;;;14.80;99.90;;;;;;5022104;28;20100;-83
2022/07/27 06:27:49;;;;;;;6.55;1.70;;;14.90;99.90;;;;;;5021979;28;20037;-83
2022/07/27 06:30:16;;;;;;;5.68;1.67;;;14.70;99.90;;;;;;5005403;28;20052;-79
2022/07/27 06:32:42;;;;;;;3.92;1.65;;;14.70;99.90;;;;;;5024110;28;20053;-85
2022/07/27 06:35:08;;;;;;;2.33;1.33;;;14.60;99.90;;;;;;5036759;28;20085;-81
2022/07/27 06:37:34;;;;;;;2.75;2.20;;;14.40;99.90;;;;;;5018480;28;20084;-81
2022/07/27 06:40:00;;;;;;;4.45;1.50;;;14.30;99.90;;;;;;5022743;28;20092;-81
2022/07/27 06:42:26;;;;;;;5.38;1.60;;;14.20;99.90;;;;;;5007801;28;20490;-81
2022/07/27 06:44:52;;;;;;;4.68;1.55;;;14.20;99.90;;;;;;5022517;28;20137;-80
2022/07/27 06:47:18;;;;;;;3.85;1.85;;;14.40;99.90;;;;;;5022406;28;20050;-80
2022/07/27 06:49:44;;;;;;;3.78;2.00;;;14.40;99.90;;;;;;5022199;28;20053;-80
2022/07/27 06:52:09;;;;;;;4.22;1.90;;;14.60;99.90;;;;;;5023456;28;20046;-81
2022/07/27 06:54:35;;;;;;;6.68;1.70;;;14.80;99.90;;;;;;5020695;28;20132;-81
2022/07/27 06:57:00;;;;;;;6.05;1.73;;;14.90;99.90;;;;;;5022554;28;20137;-82
2022/07/27 06:59:26;;;;;;;6.63;1.70;;;15.20;99.90;;;;;;5020880;28;20492;-82
2022/07/27 07:01:52;;;;;;;7.30;1.70;;;15.50;99.90;;;;;;5020893;28;20580;-81
2022/07/27 07:04:17;;;;;;;5.75;1.75;;;16.00;99.90;;;;;;5019595;28;20188;-81
2022/07/27 07:06:43;;;;;;;5.28;1.58;;;16.60;99.90;;;;;;5023986;28;20069;-84
2022/07/27 07:09:09;;;;;;;4.68;1.50;;;16.80;99.90;;;;;;5039513;28;20036;-82
2022/07/27 07:11:35;;;;;;;10.43;2.42;;;17.30;99.90;;;;;;5038969;28;20046;-85
2022/07/27 07:14:00;;;;;;;5.22;1.52;;;17.80;99.90;;;;;;5022358;28;20060;-82
2022/07/27 07:16:26;;;;;;;2.58;1.38;;;18.20;99.90;;;;;;5033069;28;20037;-81
2022/07/27 07:18:52;;;;;;;2.40;1.40;;;18.20;99.90;;;;;;5031349;28;20118;-81
2022/07/27 07:21:17;;;;;;;4.10;1.30;;;18.20;99.90;;;;;;5031164;28;20057;-82
2022/07/27 07:23:43;;;;;;;4.97;1.30;;;18.40;99.90;;;;;;5028828;28;20058;-82
2022/07/27 07:26:09;;;;;;;9.07;2.00;;;18.40;99.90;;;;;;5027309;28;20046;-82
2022/07/27 07:28:35;;;;;;;5.03;1.20;;;18.60;99.90;;;;;;5031712;28;20046;-82
2022/07/27 07:31:01;;;;;;;5.15;1.50;;;18.80;99.90;;;;;;5011720;28;20046;-83
2022/07/27 07:33:26;;;;;;;3.05;1.20;;;18.90;99.90;;;;;;5019292;28;20060;-82
2022/07/27 07:35:52;;;;;;;4.63;1.20;;;19.00;99.90;;;;;;5024513;28;20042;-83
2022/07/27 07:38:18;;;;;;;2.97;1.40;;;19.30;99.90;;;;;;5023287;28;20084;-83
2022/07/27 07:40:44;;;;;;;3.42;1.20;;;19.80;99.90;;;;;;5022133;28;20045;-84
2022/07/27 07:43:10;;;;;;;3.92;1.58;;;20.50;99.90;;;;;;5000890;28;20056;-85
2022/07/27 07:45:36;;;;;;;3.10;1.02;;;21.30;99.90;;;;;;5017004;28;20042;-85
2022/07/27 07:48:04;;;;;;;4.22;1.23;;;21.10;99.90;;;;;;5016189;28;20045;-86
2022/07/27 07:50:30;;;;;;;2.92;1.35;;;21.90;99.90;;;;;;5017649;28;20041;-84
2022/07/27 07:52:55;;;;;;;3.35;0.98;;;21.80;99.90;;;;;;5023819;28;20048;-82
2022/07/27 07:55:22;;;;;;;3.47;1.20;;;22.30;99.90;;;;;;5038459;28;20076;-83
2022/07/27 07:57:48;;;;;;;6.68;1.17;;;22.80;99.90;;;;;;5027638;28;20042;-85
2022/07/27 08:00:14;;;;;;;5.38;1.10;;;22.40;99.90;;;;;;5017965;28;20060;-83
2022/07/27 08:02:47;;;;;;;3.75;1.20;;;22.90;99.90;;;;;;5002831;28;20486;-86
2022/07/27 08:05:12;;;;;;;5.07;1.27;;;23.20;99.90;;;;;;5006392;28;20371;-84
2022/07/27 08:07:38;;;;;;;2.35;1.15;;;23.20;99.90;;;;;;5022218;28;20048;-84
2022/07/27 08:10:06;;;;;;;2.63;0.93;;;22.80;99.90;;;;;;5002724;28;20096;-84
2022/07/27 08:12:33;;;;;;;3.55;1.45;;;24.00;99.90;;;;;;5002254;28;20490;-85
2022/07/27 08:14:58;;;;;;;3.28;1.13;;;23.30;99.90;;;;;;4986010;28;20406;-86
2022/07/27 08:17:24;;;;;;;3.28;1.17;;;23.30;99.90;;;;;;5016211;28;20061;-85
2022/07/27 08:19:50;;;;;;;4.35;1.15;;;23.50;99.90;;;;;;5015249;28;20052;-86
2022/07/27 08:22:15;;;;;;;6.78;1.10;;;23.00;99.90;;;;;;4999834;28;20403;-85
2022/07/27 08:24:41;;;;;;;4.20;1.02;;;23.20;99.90;;;;;;5015944;28;20105;-86
2022/07/27 08:27:07;;;;;;;5.20;1.20;;;22.80;99.90;;;;;;4998000;28;20389;-86
2022/07/27 08:29:32;;;;;;;5.43;1.13;;;22.30;99.90;;;;;;5015827;28;20050;-84
2022/07/27 08:31:58;;;;;;;4.18;1.30;;;21.10;99.90;;;;;;5035430;28;20029;-87
2022/07/27 08:34:23;;;;;;;3.45;0.90;;;20.90;99.90;;;;;;5020512;28;20045;-85
2022/07/27 08:36:49;;;;;;;3.85;1.30;;;19.80;99.90;;;;;;5035470;28;20049;-84
2022/07/27 08:39:15;;;;;;;4.93;1.70;;;19.00;99.90;;;;;;5023016;28;20077;-84
2022/07/27 08:41:41;;;;;;;6.30;1.40;;;18.40;99.90;;;;;;5015398;28;20054;-83
2022/07/27 08:44:10;;;;;;;4.95;1.50;;;18.20;99.90;;;;;;5016356;28;20053;-85
2022/07/27 08:46:39;;;;;;;2.72;1.33;;;17.70;99.90;;;;;;4982495;28;20046;-86
2022/07/27 08:49:05;;;;;;;3.63;1.30;;;17.00;99.90;;;;;;4998441;28;20061;-86
2022/07/27 08:51:31;;;;;;;6.63;1.63;;;16.60;99.90;;;;;;4999382;28;20457;-86
2022/07/27 08:54:05;;;;;;;6.75;1.48;;;17.30;99.90;;;;;;4997399;28;20037;-85
2022/07/27 08:56:31;;;;;;;3.72;1.40;;;16.40;99.90;;;;;;4984039;28;20557;-85
2022/07/27 08:59:00;;;;;;;3.70;1.90;;;16.50;99.90;;;;;;5005342;28;20539;-85
2022/07/27 09:01:25;;;;;;;6.43;1.55;;;16.30;99.90;;;;;;4998991;28;20133;-83
2022/07/27 09:03:51;;;;;;;5.15;1.45;;;16.40;99.90;;;;;;4997567;28;20045;-83
2022/07/27 09:06:49;;;;;;;5.75;1.70;;;16.40;99.90;;;;;;5013633;28;20490;-83
2022/07/27 09:09:16;;;;;;;6.32;1.88;;;16.50;99.90;;;;;;4966639;28;20605;-83
2022/07/27 09:11:44;;;;;;;5.78;1.70;;;17.60;99.90;;;;;;5013624;28;20401;-82
2022/07/27 09:14:11;;;;;;;3.35;1.50;;;16.70;99.90;;;;;;5014792;28;20136;-83
2022/07/27 09:16:37;;;;;;;7.55;1.73;;;16.90;99.90;;;;;;5027358;28;20078;-83
2022/07/27 09:19:04;;;;;;;3.97;1.52;;;16.80;99.90;;;;;;5017134;28;20086;-86
2022/07/27 09:21:30;;;;;;;3.33;1.40;;;17.10;99.90;;;;;;5007465;28;20097;-84
2022/07/27 09:24:07;;;;;;;3.90;1.60;;;17.30;99.90;;;;;;5019133;28;20041;-84
2022/07/27 09:26:33;;;;;;;5.25;1.50;;;17.60;99.90;;;;;;5013519;28;20038;-84
2022/07/27 09:29:04;;;;;;;5.15;1.40;;;17.70;99.90;;;;;;5030950;28;20072;-83
2022/07/27 09:31:29;;;;;;;5.18;1.73;;;18.40;99.90;;;;;;4993342;28;20051;-82
2022/07/27 09:33:58;;;;;;;6.25;1.23;;;18.90;99.90;;;;;;4991744;28;20050;-82
2022/07/27 09:36:24;;;;;;;4.28;1.10;;;19.10;99.90;;;;;;4990899;28;20052;-81
2022/07/27 09:38:54;;;;;;;14.10;2.35;;;19.50;99.90;;;;;;4990362;28;20046;-81
2022/07/27 09:41:20;;;;;;;1.65;0.82;;;19.20;99.90;;;;;;5023206;28;20045;-83
2022/07/27 09:44:06;;;;;;;3.92;1.10;;;19.40;99.90;;;;;;5025100;28;20042;-81
2022/07/27 09:46:37;;;;;;;1.85;1.00;;;19.40;99.90;;;;;;5021694;28;20046;-80
2022/07/27 09:49:03;;;;;;;5.15;1.10;;;19.40;99.90;;;;;;5022948;28;20049;-82
2022/07/27 09:51:29;;;;;;;1.75;0.90;;;19.70;99.90;;;;;;5010613;28;20085;-81
2022/07/27 09:53:55;;;;;;;1.50;0.73;;;19.50;99.90;;;;;;5032692;28;20065;-89
2022/07/27 09:56:31;;;;;;;4.80;1.00;;;20.00;99.90;;;;;;5039588;28;20044;-82
2022/07/27 09:58:57;;;;;;;3.80;1.00;;;20.20;99.90;;;;;;5040996;28;20033;-84
2022/07/27 10:01:24;;;;;;;2.40;0.90;;;20.30;99.90;;;;;;5024115;28;20054;-81
2022/07/27 10:03:54;;;;;;;2.45;0.90;;;20.80;99.90;;;;;;5014433;28;20127;-80
2022/07/27 10:06:21;;;;;;;3.53;1.30;;;20.60;99.90;;;;;;5023686;28;20065;-80
2022/07/27 10:08:48;;;;;;;2.75;1.00;;;21.00;99.90;;;;;;5025513;28;20050;-80
2022/07/27 10:11:14;;;;;;;3.47;1.20;;;21.10;99.90;;;;;;5023013;28;20075;-81
2022/07/27 10:13:40;;;;;;;4.30;1.10;;;21.10;99.90;;;;;;5023485;28;20141;-81
2022/07/27 10:16:07;;;;;;;3.40;0.88;;;21.00;99.90;;;;;;5025917;28;20401;-82
2022/07/27 10:19:00;;;;;;;2.42;0.90;;;21.50;99.90;;;;;;5022468;28;20125;-81
2022/07/27 10:21:26;;;;;;;1.38;0.90;;;21.60;99.90;;;;;;5018179;28;20120;-81
2022/07/27 10:24:02;;;;;;;2.15;0.90;;;21.30;99.90;;;;;;5017580;28;20046;-81
2022/07/27 10:26:31;;;;;;;3.47;1.02;;;21.50;99.90;;;;;;5022827;28;20435;-80
2022/07/27 10:28:59;;;;;;;2.13;1.15;;;21.50;99.90;;;;;;5018523;28;20474;-80
2022/07/27 10:31:36;;;;;;;6.07;1.65;;;20.70;99.90;;;;;;5018846;28;20133;-80
2022/07/27 10:34:04;;;;;;;2.75;0.95;;;21.20;99.90;;;;;;5017865;28;20065;-82
2022/07/27 10:36:29;;;;;;;4.78;1.15;;;20.90;99.90;;;;;;5020518;28;20049;-81
2022/07/27 10:38:56;;;;;;;3.75;0.90;;;21.20;99.90;;;;;;5034809;28;20046;-80
2022/07/27 10:41:23;;;;;;;1.90;1.10;;;21.00;99.90;;;;;;5039938;28;20081;-81
2022/07/27 10:43:52;;;;;;;2.60;1.00;;;21.40;99.90;;;;;;5023600;28;20077;-81
2022/07/27 10:46:20;;;;;;;1.10;0.80;;;21.70;99.90;;;;;;5001490;28;20088;-81
2022/07/27 10:49:15;;;;;;;2.55;1.00;;;23.00;99.90;;;;;;5017557;28;20398;-82
2022/07/27 10:51:40;;;;;;;3.03;1.00;;;24.00;99.60;;;;;;5005849;28;20054;-83
2022/07/27 10:54:26;;;;;;;2.33;0.90;;;23.30;98.40;;;;;;5022072;28;20053;-83
2022/07/27 10:56:53;;;;;;;1.95;1.02;;;23.00;99.10;;;;;;5015492;28;20082;-86
2022/07/27 10:59:43;;;;;;;3.58;1.10;;;22.00;99.80;;;;;;4982524;28;20104;-86
2022/07/27 11:02:12;;;;;;;3.70;1.13;;;21.40;99.90;;;;;;4998178;28;20057;-85
2022/07/27 11:04:50;;;;;;;4.35;1.00;;;21.20;99.90;;;;;;4997238;28;20042;-86
2022/07/27 11:07:20;;;;;;;3.33;1.02;;;20.90;99.90;;;;;;5000545;28;20038;-86
2022/07/27 11:09:47;;;;;;;3.15;0.98;;;20.60;99.90;;;;;;5000835;28;20070;-83
2022/07/27 11:12:14;;;;;;;2.95;0.80;;;20.50;99.90;;;;;;5001501;28;20077;-83
2022/07/27 11:14:47;;;;;;;3.90;0.90;;;20.60;99.90;;;;;;5022853;28;20045;-82
2022/07/27 11:17:14;;;;;;;2.83;0.98;;;20.90;99.90;;;;;;5019960;28;20049;-83
2022/07/27 11:19:40;;;;;;;3.10;0.82;;;21.10;99.90;;;;;;4999804;28;20394;-83
2022/07/27 11:22:05;;;;;;;0.88;0.80;;;21.40;99.90;;;;;;5038614;28;20096;-85
2022/07/27 11:24:32;;;;;;;1.85;0.93;;;21.20;99.90;;;;;;5038152;28;20045;-83
2022/07/27 11:26:58;;;;;;;1.38;0.80;;;21.30;99.50;;;;;;5035969;28;20045;-83
2022/07/27 11:29:23;;;;;;;2.47;1.10;;;20.90;99.90;;;;;;5001794;28;20481;-83
2022/07/27 11:31:53;;;;;;;1.58;0.80;;;20.60;99.90;;;;;;5030209;28;20038;-83
2022/07/27 11:34:32;;;;;;;2.33;0.70;;;20.60;99.90;;;;;;5027042;28;20042;-83
2022/07/27 11:37:00;;;;;;;3.45;1.00;;;20.80;99.90;;;;;;5025276;28;20046;-86
2022/07/27 11:39:27;;;;;;;2.47;0.80;;;21.00;99.90;;;;;;5026684;28;20096;-83
2022/07/27 11:41:53;;;;;;;3.97;1.40;;;21.70;99.90;;;;;;5029197;28;20053;-83
2022/07/27 11:44:19;;;;;;;1.58;0.80;;;21.70;99.70;;;;;;5029093;28;20046;-83
2022/07/27 11:46:45;;;;;;;2.92;0.80;;;21.30;99.30;;;;;;5028602;28;20049;-84
2022/07/27 11:49:12;;;;;;;1.92;1.00;;;21.60;99.60;;;;;;5026640;28;20054;-85
2022/07/27 11:51:41;;;;;;;0.65;0.60;;;21.70;98.40;;;;;;5026363;28;20053;-85
2022/07/27 11:54:17;;;;;;;1.50;0.70;;;21.60;98.90;;;;;;5026291;28;20056;-85
2022/07/27 11:56:45;;;;;;;1.63;0.70;;;21.60;99.00;;;;;;5027478;28;20052;-85
2022/07/27 11:59:13;;;;;;;2.47;0.80;;;21.40;99.20;;;;;;5022210;28;20049;-83
2022/07/27 12:01:41;;;;;;;2.42;0.80;;;21.30;99.60;;;;;;5014208;28;20091;-81
2022/07/27 12:04:29;;;;;;;1.63;0.70;;;21.00;99.90;;;;;;5033581;28;20093;-82
2022/07/27 12:07:09;;;;;;;1.65;0.73;;;21.60;98.30;;;;;;5019305;28;20077;-82
2022/07/27 12:09:39;;;;;;;2.10;0.60;;;21.70;99.30;;;;;;5018252;28;20050;-83
2022/07/27 12:12:15;;;;;;;1.20;0.80;;;22.10;97.80;;;;;;5002988;28;20081;-82
2022/07/27 12:14:50;;;;;;;2.33;0.82;;;21.70;98.90;;;;;;5001521;28;20054;-82
2022/07/27 12:17:24;;;;;;;3.22;0.80;;;21.90;99.90;;;;;;5020023;28;20394;-82
2022/07/27 12:20:14;;;;;;;2.83;0.70;;;21.70;99.80;;;;;;5020076;28;20050;-83
2022/07/27 12:22:42;;;;;;;1.30;0.90;;;22.10;99.90;;;;;;4988684;28;20077;-86
2022/07/27 12:25:08;;;;;;;2.65;0.80;;;22.80;99.10;;;;;;5021630;28;20089;-85
2022/07/27 12:27:34;;;;;;;2.88;0.88;;;22.20;99.60;;;;;;5019607;28;20092;-85
2022/07/27 12:30:08;;;;;;;2.10;0.75;;;21.70;99.50;;;;;;5018195;28;20049;-84
2022/07/27 12:32:36;;;;;;;0.90;0.65;;;21.80;99.00;;;;;;5019221;28;20045;-85
2022/07/27 12:35:16;;;;;;;2.15;0.88;;;21.80;99.20;;;;;;5019391;28;20505;-85
2022/07/27 12:37:42;;;;;;;2.17;0.70;;;22.20;98.50;;;;;;5002335;28;20105;-85
2022/07/27 12:40:15;;;;;;;2.53;2.05;;;21.90;99.20;;;;;;5003395;28;20038;-85
2022/07/27 12:42:41;;;;;;;1.17;0.60;;;21.50;99.40;;;;;;4999081;28;20058;-85
2022/07/27 12:45:15;;;;;;;3.40;0.90;;;21.70;99.70;;;;;;5008555;28;20038;-86
2022/07/27 12:47:41;;;;;;;4.00;0.90;;;21.30;99.20;;;;;;5033969;28;20085;-86
2022/07/27 12:50:07;;;;;;;3.78;0.73;;;21.80;99.60;;;;;;5019348;28;20060;-85